Aérodrome :
LOGIN :

S'inscrire | Disclaimer

   EN    FR    IT 

 










Légende :    VFR   VFR Marginal   IFR   IFR Intensif   IFR Très Intensif
Visi : 
Plafond : 
>= 8 km
>= 3000ft
5 à 8 km
1000 à 3000 ft
1500m à 5 km
500 à 1000 ft
800 à 1500m
200 à 500 ft
< 800m
< 200 ft
Symboles :   Orages  Brouillard  Fortes neiges  Fortes précipitations  Vent > 20 kt
SIGMETs :   Divers  Orages  Givrage  Turbulence  Onde Orograph.  Cendres Volcan.






- Altitude de l'aérodrome : 1197 ft
- Code IATA : SPM


ETAD - Spangdahlem Ab

DERNIER METAR :
  • 070156Z AUTO 24010KT 9999 BKN012 OVC020 07/07 A2983 RMK AO2 RAE18 SLP103 P0000 T00670067 $

METARs EXPIRÉS :
  • 070133Z AUTO 24011KT 9999 SCT006 BKN013 07/07 A2982 RMK AO2 RAE18 CIG 005V013 CIG 012 RWY23 CIG 012 RWY24 SLP100 $
  • 070111Z AUTO 24010G21KT 9999 -RA OVC005 07/07 A2981 RMK AO2 CIG 004 RWY23 SLP096 $
  • 070056Z AUTO 24013KT 9999 -RA OVC005 06/06 A2981 RMK AO2 RAE38RAB39 SLP098 P0000 T00640064 $
  • 070039Z AUTO 23014G21KT 9999 -RA OVC005 06/06 A2980 RMK AO2 RAE38RAB39 CIG 004 RWY23 SLP094 $
  • 062356Z AUTO 23012G17KT 9999 -RA OVC004 06/06 A2980 RMK AO2 RAB2256E10RAB42 SLP094 P0000 60000 T00560056 10056 20038 55007 $
  • 062342Z AUTO 24010KT 9999 -RA OVC005 06/06 A2980 RMK AO2 RAB2256E10RAB42 CIG 004 RWY23 SLP094 $

TAF TAF ETAD
Valide du 06 à 21h jusqu'au 08 à 03h UTC


062055Z 0621/0803 22015G25KT 6000 -SHRA BR OVC005 620409 520005 QNH2978INS
TEMPO 0621/0624 22020G35KT 3200 -SHRA BR SCT007 OVC015 530005
BECMG 0701/0702 23012G20KT 6000 BR OVC007 620405 QNH2981INS
BECMG 0706/0707 25012G18KT 6000 BR OVC003 610303 QNH2994INS
TEMPO 0707/0710 1200 BR OVC002
BECMG 0710/0711 25012G18KT 8000 BR OVC007 610303 QNH2998INS
BECMG 0717/0718 23012KT 4400 BR OVC003 610303 QNH2990INS TX06/0712Z TN04/0621Z LAST NO AMDS AFT 0621 NEXT 0707



MET'MAP, la Météo Aéronautique d'un coup d'oeil ! - Copyright ORBIFLY Décembre 2007 - Disclaimer

ORBIFLY MET'MAP TEAM :

Programmation & Développement : Alexandra Zaïnal
Sur une idée originale de : Baudouin d'Aumeries
Assistance à la programmation : Marc-Olivier Méhu
Soutien technique & logistique : Manuel Goepfert

Contact : metmap@orbifly.com




SOURCES & CREDITS :

   NOAA